sensor_id;sensor_type;location;lat;lon;timestamp;temperature;humidity
56076;DHT22;41951;49.022;12.066;2022-07-03T00:01:08;16.50;99.90
56076;DHT22;41951;49.022;12.066;2022-07-03T00:03:34;16.60;99.90
56076;DHT22;41951;49.022;12.066;2022-07-03T00:06:00;16.50;99.90
56076;DHT22;41951;49.022;12.066;2022-07-03T00:08:25;16.40;99.90
56076;DHT22;41951;49.022;12.066;2022-07-03T00:10:51;16.30;99.90
56076;DHT22;41951;49.022;12.066;2022-07-03T00:13:16;16.20;99.90
56076;DHT22;41951;49.022;12.066;2022-07-03T00:15:42;16.20;99.90
56076;DHT22;41951;49.022;12.066;2022-07-03T00:18:09;16.30;99.90
56076;DHT22;41951;49.022;12.066;2022-07-03T00:20:40;16.40;99.90
56076;DHT22;41951;49.022;12.066;2022-07-03T00:23:09;16.40;99.90
56076;DHT22;41951;49.022;12.066;2022-07-03T00:25:37;16.30;99.90
56076;DHT22;41951;49.022;12.066;2022-07-03T00:28:04;16.40;99.90
56076;DHT22;41951;49.022;12.066;2022-07-03T00:30:31;16.40;99.90
56076;DHT22;41951;49.022;12.066;2022-07-03T00:32:57;16.40;99.90
56076;DHT22;41951;49.022;12.066;2022-07-03T00:35:24;16.40;99.90
56076;DHT22;41951;49.022;12.066;2022-07-03T00:37:49;16.30;99.90
56076;DHT22;41951;49.022;12.066;2022-07-03T00:40:15;16.20;99.90
56076;DHT22;41951;49.022;12.066;2022-07-03T00:42:41;16.00;99.90
56076;DHT22;41951;49.022;12.066;2022-07-03T00:45:08;16.00;99.90
56076;DHT22;41951;49.022;12.066;2022-07-03T00:47:36;15.90;99.90
56076;DHT22;41951;49.022;12.066;2022-07-03T00:50:07;15.90;99.90
56076;DHT22;41951;49.022;12.066;2022-07-03T00:52:33;15.70;99.90
56076;DHT22;41951;49.022;12.066;2022-07-03T00:55:01;15.70;99.90
56076;DHT22;41951;49.022;12.066;2022-07-03T00:57:31;15.70;99.90
56076;DHT22;41951;49.022;12.066;2022-07-03T00:59:57;15.80;99.90
56076;DHT22;41951;49.022;12.066;2022-07-03T01:05:09;15.80;99.90
56076;DHT22;41951;49.022;12.066;2022-07-03T01:08:54;15.80;99.90
56076;DHT22;41951;49.022;12.066;2022-07-03T01:11:14;15.70;99.90
56076;DHT22;41951;49.022;12.066;2022-07-03T01:14:38;15.70;99.90
56076;DHT22;41951;49.022;12.066;2022-07-03T01:17:04;15.50;99.90
56076;DHT22;41951;49.022;12.066;2022-07-03T01:19:42;15.50;99.90
56076;DHT22;41951;49.022;12.066;2022-07-03T01:27:35;15.60;99.90
56076;DHT22;41951;49.022;12.066;2022-07-03T01:30:09;15.50;99.90
56076;DHT22;41951;49.022;12.066;2022-07-03T01:32:47;15.40;99.90
56076;DHT22;41951;49.022;12.066;2022-07-03T01:35:22;15.30;99.90
56076;DHT22;41951;49.022;12.066;2022-07-03T01:37:48;15.30;99.90
56076;DHT22;41951;49.022;12.066;2022-07-03T01:40:17;15.20;99.90
56076;DHT22;41951;49.022;12.066;2022-07-03T01:42:44;15.10;99.90
56076;DHT22;41951;49.022;12.066;2022-07-03T01:45:12;15.10;99.90
56076;DHT22;41951;49.022;12.066;2022-07-03T01:47:42;15.00;99.90
56076;DHT22;41951;49.022;12.066;2022-07-03T01:50:11;15.00;99.90
56076;DHT22;41951;49.022;12.066;2022-07-03T01:52:40;15.00;99.90
56076;DHT22;41951;49.022;12.066;2022-07-03T01:55:08;15.00;99.90
56076;DHT22;41951;49.022;12.066;2022-07-03T01:57:47;15.10;99.90
56076;DHT22;41951;49.022;12.066;2022-07-03T02:00:16;15.10;99.90
56076;DHT22;41951;49.022;12.066;2022-07-03T02:03:05;15.10;99.90
56076;DHT22;41951;49.022;12.066;2022-07-03T02:05:45;15.20;99.90
56076;DHT22;41951;49.022;12.066;2022-07-03T02:10:40;15.40;99.90
56076;DHT22;41951;49.022;12.066;2022-07-03T02:13:24;15.40;99.90
56076;DHT22;41951;49.022;12.066;2022-07-03T02:15:53;15.40;99.90
56076;DHT22;41951;49.022;12.066;2022-07-03T02:18:28;15.40;99.90
56076;DHT22;41951;49.022;12.066;2022-07-03T02:21:14;15.30;99.90
56076;DHT22;41951;49.022;12.066;2022-07-03T02:26:27;15.30;99.90
56076;DHT22;41951;49.022;12.066;2022-07-03T02:28:58;15.30;99.90
56076;DHT22;41951;49.022;12.066;2022-07-03T02:31:27;15.20;99.90
56076;DHT22;41951;49.022;12.066;2022-07-03T02:33:56;15.10;99.90
56076;DHT22;41951;49.022;12.066;2022-07-03T02:36:28;15.00;99.90
56076;DHT22;41951;49.022;12.066;2022-07-03T02:38:56;14.90;99.90
56076;DHT22;41951;49.022;12.066;2022-07-03T02:41:33;14.90;99.90
56076;DHT22;41951;49.022;12.066;2022-07-03T02:44:25;14.80;99.90
56076;DHT22;41951;49.022;12.066;2022-07-03T02:47:14;14.80;99.90
56076;DHT22;41951;49.022;12.066;2022-07-03T02:55:39;14.70;99.90
56076;DHT22;41951;49.022;12.066;2022-07-03T03:01:07;14.50;99.90
56076;DHT22;41951;49.022;12.066;2022-07-03T03:03:34;14.40;99.90
56076;DHT22;41951;49.022;12.066;2022-07-03T03:06:05;14.30;99.90
56076;DHT22;41951;49.022;12.066;2022-07-03T03:08:43;14.30;99.90
56076;DHT22;41951;49.022;12.066;2022-07-03T03:14:09;14.30;99.90
56076;DHT22;41951;49.022;12.066;2022-07-03T03:16:45;14.10;99.90
56076;DHT22;41951;49.022;12.066;2022-07-03T03:19:11;14.10;99.90
56076;DHT22;41951;49.022;12.066;2022-07-03T03:21:50;14.20;99.90
56076;DHT22;41951;49.022;12.066;2022-07-03T03:24:18;14.10;99.90
56076;DHT22;41951;49.022;12.066;2022-07-03T03:26:44;14.00;99.90
56076;DHT22;41951;49.022;12.066;2022-07-03T03:29:11;14.00;99.90
56076;DHT22;41951;49.022;12.066;2022-07-03T03:31:39;14.00;99.90
56076;DHT22;41951;49.022;12.066;2022-07-03T03:34:06;14.00;99.90
56076;DHT22;41951;49.022;12.066;2022-07-03T03:36:32;14.00;99.90
56076;DHT22;41951;49.022;12.066;2022-07-03T03:38:59;14.00;99.90
56076;DHT22;41951;49.022;12.066;2022-07-03T03:41:25;14.10;99.90
56076;DHT22;41951;49.022;12.066;2022-07-03T03:43:50;14.10;99.90
56076;DHT22;41951;49.022;12.066;2022-07-03T03:46:16;14.10;99.90
56076;DHT22;41951;49.022;12.066;2022-07-03T03:48:41;14.00;99.90
56076;DHT22;41951;49.022;12.066;2022-07-03T03:51:07;14.30;99.90
56076;DHT22;41951;49.022;12.066;2022-07-03T03:53:33;14.10;99.90
56076;DHT22;41951;49.022;12.066;2022-07-03T03:56:10;14.20;99.90
56076;DHT22;41951;49.022;12.066;2022-07-03T03:58:38;14.30;99.90
56076;DHT22;41951;49.022;12.066;2022-07-03T04:01:05;14.30;99.90
56076;DHT22;41951;49.022;12.066;2022-07-03T04:03:32;14.40;99.90
56076;DHT22;41951;49.022;12.066;2022-07-03T04:05:58;14.30;99.90
56076;DHT22;41951;49.022;12.066;2022-07-03T04:08:25;14.30;99.90
56076;DHT22;41951;49.022;12.066;2022-07-03T04:10:50;14.50;99.90
56076;DHT22;41951;49.022;12.066;2022-07-03T04:13:16;14.50;99.90
56076;DHT22;41951;49.022;12.066;2022-07-03T04:15:43;14.40;99.90
56076;DHT22;41951;49.022;12.066;2022-07-03T04:18:08;14.50;99.90
56076;DHT22;41951;49.022;12.066;2022-07-03T04:20:34;14.60;99.90
56076;DHT22;41951;49.022;12.066;2022-07-03T04:23:00;14.60;99.90
56076;DHT22;41951;49.022;12.066;2022-07-03T04:25:26;14.70;99.90
56076;DHT22;41951;49.022;12.066;2022-07-03T04:27:52;14.70;99.90
56076;DHT22;41951;49.022;12.066;2022-07-03T04:30:18;14.70;99.90
56076;DHT22;41951;49.022;12.066;2022-07-03T04:32:43;14.80;99.90
56076;DHT22;41951;49.022;12.066;2022-07-03T04:35:10;14.80;99.90
56076;DHT22;41951;49.022;12.066;2022-07-03T04:37:36;14.80;99.90
56076;DHT22;41951;49.022;12.066;2022-07-03T04:40:02;14.90;99.90
56076;DHT22;41951;49.022;12.066;2022-07-03T04:42:28;15.10;99.90
56076;DHT22;41951;49.022;12.066;2022-07-03T04:44:54;15.10;99.90
56076;DHT22;41951;49.022;12.066;2022-07-03T04:47:20;15.20;99.90
56076;DHT22;41951;49.022;12.066;2022-07-03T04:49:46;15.30;99.90
56076;DHT22;41951;49.022;12.066;2022-07-03T04:52:12;15.40;99.90
56076;DHT22;41951;49.022;12.066;2022-07-03T04:54:37;15.30;99.90
56076;DHT22;41951;49.022;12.066;2022-07-03T04:57:04;15.30;99.90
56076;DHT22;41951;49.022;12.066;2022-07-03T04:59:29;15.50;99.90
56076;DHT22;41951;49.022;12.066;2022-07-03T05:01:55;15.70;99.90
56076;DHT22;41951;49.022;12.066;2022-07-03T05:04:21;15.80;99.90
56076;DHT22;41951;49.022;12.066;2022-07-03T05:06:46;15.90;99.90
56076;DHT22;41951;49.022;12.066;2022-07-03T05:09:12;16.00;99.90
56076;DHT22;41951;49.022;12.066;2022-07-03T05:11:38;16.10;99.90
56076;DHT22;41951;49.022;12.066;2022-07-03T05:14:04;16.20;99.90
56076;DHT22;41951;49.022;12.066;2022-07-03T05:16:30;16.30;99.90
56076;DHT22;41951;49.022;12.066;2022-07-03T05:18:59;16.30;99.90
56076;DHT22;41951;49.022;12.066;2022-07-03T05:21:24;16.30;99.90
56076;DHT22;41951;49.022;12.066;2022-07-03T05:23:50;16.40;99.90
56076;DHT22;41951;49.022;12.066;2022-07-03T05:26:15;16.50;99.90
56076;DHT22;41951;49.022;12.066;2022-07-03T05:28:42;16.60;99.90
56076;DHT22;41951;49.022;12.066;2022-07-03T05:31:07;16.70;99.90
56076;DHT22;41951;49.022;12.066;2022-07-03T05:33:33;16.80;99.90
56076;DHT22;41951;49.022;12.066;2022-07-03T05:36:01;16.80;99.90
56076;DHT22;41951;49.022;12.066;2022-07-03T05:38:27;17.00;99.90
56076;DHT22;41951;49.022;12.066;2022-07-03T05:41:11;17.10;99.90
56076;DHT22;41951;49.022;12.066;2022-07-03T05:43:37;17.20;99.90
56076;DHT22;41951;49.022;12.066;2022-07-03T05:46:03;17.30;99.90
56076;DHT22;41951;49.022;12.066;2022-07-03T05:48:29;17.30;99.90
56076;DHT22;41951;49.022;12.066;2022-07-03T05:50:55;17.40;99.90
56076;DHT22;41951;49.022;12.066;2022-07-03T05:53:22;17.50;99.90
56076;DHT22;41951;49.022;12.066;2022-07-03T05:55:56;17.60;99.90
56076;DHT22;41951;49.022;12.066;2022-07-03T05:58:22;17.70;99.90
56076;DHT22;41951;49.022;12.066;2022-07-03T06:00:48;17.70;99.90
56076;DHT22;41951;49.022;12.066;2022-07-03T06:03:14;17.90;99.90
56076;DHT22;41951;49.022;12.066;2022-07-03T06:05:39;17.90;99.90
56076;DHT22;41951;49.022;12.066;2022-07-03T06:08:05;18.00;99.90
56076;DHT22;41951;49.022;12.066;2022-07-03T06:10:32;18.10;99.90
56076;DHT22;41951;49.022;12.066;2022-07-03T06:12:57;18.20;99.90
56076;DHT22;41951;49.022;12.066;2022-07-03T06:15:23;18.30;99.90
56076;DHT22;41951;49.022;12.066;2022-07-03T06:17:48;18.50;99.90
56076;DHT22;41951;49.022;12.066;2022-07-03T06:20:14;18.60;99.90
56076;DHT22;41951;49.022;12.066;2022-07-03T06:22:40;18.60;99.90
56076;DHT22;41951;49.022;12.066;2022-07-03T06:25:06;18.80;99.90
56076;DHT22;41951;49.022;12.066;2022-07-03T06:27:32;18.90;99.90
56076;DHT22;41951;49.022;12.066;2022-07-03T06:29:58;19.00;99.90
56076;DHT22;41951;49.022;12.066;2022-07-03T06:32:24;19.10;99.90
56076;DHT22;41951;49.022;12.066;2022-07-03T06:34:49;19.20;99.90
56076;DHT22;41951;49.022;12.066;2022-07-03T06:37:15;19.40;99.90
56076;DHT22;41951;49.022;12.066;2022-07-03T06:39:41;19.40;99.90
56076;DHT22;41951;49.022;12.066;2022-07-03T06:42:06;19.50;99.90
56076;DHT22;41951;49.022;12.066;2022-07-03T06:44:32;19.50;99.90
56076;DHT22;41951;49.022;12.066;2022-07-03T06:46:58;19.60;99.90
56076;DHT22;41951;49.022;12.066;2022-07-03T06:49:24;19.70;99.90
56076;DHT22;41951;49.022;12.066;2022-07-03T06:51:50;19.80;99.90
56076;DHT22;41951;49.022;12.066;2022-07-03T06:54:15;19.80;99.90
56076;DHT22;41951;49.022;12.066;2022-07-03T06:56:41;19.90;99.90
56076;DHT22;41951;49.022;12.066;2022-07-03T06:59:10;20.00;99.90
56076;DHT22;41951;49.022;12.066;2022-07-03T07:01:36;20.10;99.90
56076;DHT22;41951;49.022;12.066;2022-07-03T07:04:01;20.20;99.90
56076;DHT22;41951;49.022;12.066;2022-07-03T07:06:28;20.20;99.90
56076;DHT22;41951;49.022;12.066;2022-07-03T07:08:54;20.40;99.90
56076;DHT22;41951;49.022;12.066;2022-07-03T07:11:19;20.40;99.90
56076;DHT22;41951;49.022;12.066;2022-07-03T07:13:45;20.50;99.90
56076;DHT22;41951;49.022;12.066;2022-07-03T07:16:11;20.60;99.90
56076;DHT22;41951;49.022;12.066;2022-07-03T07:18:36;20.60;99.90
56076;DHT22;41951;49.022;12.066;2022-07-03T07:21:02;20.70;99.90
56076;DHT22;41951;49.022;12.066;2022-07-03T07:23:27;20.80;99.90
56076;DHT22;41951;49.022;12.066;2022-07-03T07:25:53;20.80;99.90
56076;DHT22;41951;49.022;12.066;2022-07-03T07:28:19;20.90;99.90
56076;DHT22;41951;49.022;12.066;2022-07-03T07:30:44;21.00;99.90
56076;DHT22;41951;49.022;12.066;2022-07-03T07:33:10;21.10;99.90
56076;DHT22;41951;49.022;12.066;2022-07-03T07:35:35;21.20;99.90
56076;DHT22;41951;49.022;12.066;2022-07-03T07:38:01;21.30;99.90
56076;DHT22;41951;49.022;12.066;2022-07-03T07:40:27;21.30;99.90
56076;DHT22;41951;49.022;12.066;2022-07-03T07:42:52;21.40;99.90
56076;DHT22;41951;49.022;12.066;2022-07-03T07:45:18;21.50;99.90
56076;DHT22;41951;49.022;12.066;2022-07-03T07:47:44;21.60;99.90
56076;DHT22;41951;49.022;12.066;2022-07-03T07:50:09;21.70;99.90
56076;DHT22;41951;49.022;12.066;2022-07-03T07:52:35;21.70;99.90
56076;DHT22;41951;49.022;12.066;2022-07-03T07:55:02;21.90;99.90
56076;DHT22;41951;49.022;12.066;2022-07-03T07:57:38;22.00;99.90
56076;DHT22;41951;49.022;12.066;2022-07-03T08:00:09;22.00;99.90
56076;DHT22;41951;49.022;12.066;2022-07-03T08:02:35;22.10;99.90
56076;DHT22;41951;49.022;12.066;2022-07-03T08:05:19;22.20;99.90
56076;DHT22;41951;49.022;12.066;2022-07-03T08:08:13;22.30;99.90
56076;DHT22;41951;49.022;12.066;2022-07-03T08:10:48;22.40;99.90
56076;DHT22;41951;49.022;12.066;2022-07-03T08:13:15;22.50;99.90
56076;DHT22;41951;49.022;12.066;2022-07-03T08:15:42;22.50;99.90
56076;DHT22;41951;49.022;12.066;2022-07-03T08:18:08;22.70;99.90
56076;DHT22;41951;49.022;12.066;2022-07-03T08:20:34;22.80;99.90
56076;DHT22;41951;49.022;12.066;2022-07-03T08:23:01;22.90;99.90
56076;DHT22;41951;49.022;12.066;2022-07-03T08:25:26;23.00;99.90
56076;DHT22;41951;49.022;12.066;2022-07-03T08:27:52;23.10;99.90
56076;DHT22;41951;49.022;12.066;2022-07-03T08:30:19;23.20;99.90
56076;DHT22;41951;49.022;12.066;2022-07-03T08:32:46;23.20;99.90
56076;DHT22;41951;49.022;12.066;2022-07-03T08:35:12;23.20;99.90
56076;DHT22;41951;49.022;12.066;2022-07-03T08:37:38;23.30;99.90
56076;DHT22;41951;49.022;12.066;2022-07-03T08:40:07;23.30;99.90
56076;DHT22;41951;49.022;12.066;2022-07-03T08:42:35;23.40;99.90
56076;DHT22;41951;49.022;12.066;2022-07-03T08:45:02;23.50;99.90
56076;DHT22;41951;49.022;12.066;2022-07-03T08:47:29;23.50;99.90
56076;DHT22;41951;49.022;12.066;2022-07-03T08:49:58;23.60;99.90
56076;DHT22;41951;49.022;12.066;2022-07-03T08:52:25;23.70;99.90
56076;DHT22;41951;49.022;12.066;2022-07-03T08:54:51;23.80;99.90
56076;DHT22;41951;49.022;12.066;2022-07-03T08:57:17;23.90;99.90
56076;DHT22;41951;49.022;12.066;2022-07-03T08:59:46;24.00;99.90
56076;DHT22;41951;49.022;12.066;2022-07-03T09:02:15;24.10;99.90
56076;DHT22;41951;49.022;12.066;2022-07-03T09:04:42;24.20;99.90
56076;DHT22;41951;49.022;12.066;2022-07-03T09:07:08;24.20;99.90
56076;DHT22;41951;49.022;12.066;2022-07-03T09:09:33;24.30;99.90
56076;DHT22;41951;49.022;12.066;2022-07-03T09:11:59;24.40;99.90
56076;DHT22;41951;49.022;12.066;2022-07-03T09:14:25;24.40;99.90
56076;DHT22;41951;49.022;12.066;2022-07-03T09:16:51;24.50;99.90
56076;DHT22;41951;49.022;12.066;2022-07-03T09:19:52;24.50;99.90
56076;DHT22;41951;49.022;12.066;2022-07-03T09:24:54;24.70;99.90
56076;DHT22;41951;49.022;12.066;2022-07-03T09:27:22;24.70;99.90
56076;DHT22;41951;49.022;12.066;2022-07-03T09:30:07;24.90;99.90
56076;DHT22;41951;49.022;12.066;2022-07-03T09:32:41;25.00;99.90
56076;DHT22;41951;49.022;12.066;2022-07-03T09:35:20;25.00;99.90
56076;DHT22;41951;49.022;12.066;2022-07-03T09:37:56;24.90;99.90
56076;DHT22;41951;49.022;12.066;2022-07-03T09:40:23;25.00;99.90
56076;DHT22;41951;49.022;12.066;2022-07-03T09:43:09;25.10;99.90
56076;DHT22;41951;49.022;12.066;2022-07-03T09:48:38;25.20;99.90
56076;DHT22;41951;49.022;12.066;2022-07-03T09:51:21;25.20;99.90
56076;DHT22;41951;49.022;12.066;2022-07-03T09:54:00;25.30;99.90
56076;DHT22;41951;49.022;12.066;2022-07-03T09:56:28;25.40;99.90
56076;DHT22;41951;49.022;12.066;2022-07-03T09:59:11;25.60;99.90
56076;DHT22;41951;49.022;12.066;2022-07-03T10:01:44;25.70;99.90
56076;DHT22;41951;49.022;12.066;2022-07-03T10:04:19;25.80;99.90
56076;DHT22;41951;49.022;12.066;2022-07-03T10:06:58;25.90;99.90
56076;DHT22;41951;49.022;12.066;2022-07-03T10:11:52;25.90;99.90
56076;DHT22;41951;49.022;12.066;2022-07-03T10:14:20;25.90;99.90
56076;DHT22;41951;49.022;12.066;2022-07-03T10:16:47;25.90;99.90
56076;DHT22;41951;49.022;12.066;2022-07-03T10:19:17;25.90;99.90
56076;DHT22;41951;49.022;12.066;2022-07-03T10:21:43;26.00;99.90
56076;DHT22;41951;49.022;12.066;2022-07-03T10:24:10;26.10;99.90
56076;DHT22;41951;49.022;12.066;2022-07-03T10:26:36;26.20;99.90
56076;DHT22;41951;49.022;12.066;2022-07-03T10:29:03;26.20;99.40
56076;DHT22;41951;49.022;12.066;2022-07-03T10:31:29;26.20;97.90
56076;DHT22;41951;49.022;12.066;2022-07-03T10:33:57;26.30;96.10
56076;DHT22;41951;49.022;12.066;2022-07-03T10:36:24;26.40;96.50
56076;DHT22;41951;49.022;12.066;2022-07-03T10:38:52;26.30;95.90
56076;DHT22;41951;49.022;12.066;2022-07-03T10:44:07;26.50;94.60
56076;DHT22;41951;49.022;12.066;2022-07-03T10:46:52;26.40;94.90
56076;DHT22;41951;49.022;12.066;2022-07-03T10:49:17;26.50;94.50
56076;DHT22;41951;49.022;12.066;2022-07-03T10:51:59;26.50;94.10
56076;DHT22;41951;49.022;12.066;2022-07-03T10:54:30;26.40;93.80
56076;DHT22;41951;49.022;12.066;2022-07-03T11:07:39;26.90;91.30
56076;DHT22;41951;49.022;12.066;2022-07-03T11:15:46;27.10;91.80
56076;DHT22;41951;49.022;12.066;2022-07-03T11:25:50;27.10;89.90
56076;DHT22;41951;49.022;12.066;2022-07-03T11:41:30;27.50;87.90
56076;DHT22;41951;49.022;12.066;2022-07-03T11:43:58;27.60;87.70
56076;DHT22;41951;49.022;12.066;2022-07-03T11:46:29;27.60;86.30
56076;DHT22;41951;49.022;12.066;2022-07-03T11:49:24;27.70;86.20
56076;DHT22;41951;49.022;12.066;2022-07-03T11:51:59;27.80;85.90
56076;DHT22;41951;49.022;12.066;2022-07-03T11:54:25;27.80;85.20
56076;DHT22;41951;49.022;12.066;2022-07-03T11:56:54;27.80;85.90
56076;DHT22;41951;49.022;12.066;2022-07-03T11:59:20;27.90;85.70
56076;DHT22;41951;49.022;12.066;2022-07-03T12:01:45;27.90;83.80
56076;DHT22;41951;49.022;12.066;2022-07-03T12:04:19;27.90;83.20
56076;DHT22;41951;49.022;12.066;2022-07-03T12:06:50;28.10;81.60
56076;DHT22;41951;49.022;12.066;2022-07-03T12:14:48;28.40;80.00
56076;DHT22;41951;49.022;12.066;2022-07-03T12:17:18;28.40;77.90
56076;DHT22;41951;49.022;12.066;2022-07-03T12:19:58;28.40;79.40
56076;DHT22;41951;49.022;12.066;2022-07-03T12:22:35;28.50;79.00
56076;DHT22;41951;49.022;12.066;2022-07-03T12:25:08;28.60;78.90
56076;DHT22;41951;49.022;12.066;2022-07-03T12:27:38;28.70;79.30
56076;DHT22;41951;49.022;12.066;2022-07-03T12:30:06;29.00;77.90
56076;DHT22;41951;49.022;12.066;2022-07-03T12:32:32;29.00;77.20
56076;DHT22;41951;49.022;12.066;2022-07-03T12:34:58;29.20;76.50
56076;DHT22;41951;49.022;12.066;2022-07-03T12:37:38;29.40;76.20
56076;DHT22;41951;49.022;12.066;2022-07-03T12:40:07;29.40;76.40
56076;DHT22;41951;49.022;12.066;2022-07-03T12:42:46;29.40;76.10
56076;DHT22;41951;49.022;12.066;2022-07-03T12:45:14;29.40;75.70
56076;DHT22;41951;49.022;12.066;2022-07-03T12:47:40;29.40;75.70
56076;DHT22;41951;49.022;12.066;2022-07-03T12:50:07;29.50;76.10
56076;DHT22;41951;49.022;12.066;2022-07-03T12:52:34;29.50;73.60
56076;DHT22;41951;49.022;12.066;2022-07-03T12:55:25;29.60;74.20
56076;DHT22;41951;49.022;12.066;2022-07-03T12:58:13;29.70;72.90
56076;DHT22;41951;49.022;12.066;2022-07-03T13:00:58;29.50;72.40
56076;DHT22;41951;49.022;12.066;2022-07-03T13:03:32;29.70;73.10
56076;DHT22;41951;49.022;12.066;2022-07-03T13:05:59;29.80;71.80
56076;DHT22;41951;49.022;12.066;2022-07-03T13:08:25;30.00;72.50
56076;DHT22;41951;49.022;12.066;2022-07-03T13:10:58;30.10;71.20
56076;DHT22;41951;49.022;12.066;2022-07-03T13:13:24;30.20;70.80
56076;DHT22;41951;49.022;12.066;2022-07-03T13:15:50;30.30;70.20
56076;DHT22;41951;49.022;12.066;2022-07-03T13:18:16;30.50;70.50
56076;DHT22;41951;49.022;12.066;2022-07-03T13:20:42;30.60;70.00
56076;DHT22;41951;49.022;12.066;2022-07-03T13:23:08;30.70;69.90
56076;DHT22;41951;49.022;12.066;2022-07-03T13:25:36;30.90;70.20
56076;DHT22;41951;49.022;12.066;2022-07-03T13:28:09;31.10;69.80
56076;DHT22;41951;49.022;12.066;2022-07-03T13:30:36;31.00;67.90
56076;DHT22;41951;49.022;12.066;2022-07-03T13:33:02;30.80;68.00
56076;DHT22;41951;49.022;12.066;2022-07-03T13:35:28;30.70;68.00
56076;DHT22;41951;49.022;12.066;2022-07-03T13:37:55;30.80;67.90
56076;DHT22;41951;49.022;12.066;2022-07-03T13:40:20;30.90;67.90
56076;DHT22;41951;49.022;12.066;2022-07-03T13:42:46;30.90;67.30
56076;DHT22;41951;49.022;12.066;2022-07-03T13:45:11;30.90;67.50
56076;DHT22;41951;49.022;12.066;2022-07-03T13:47:37;31.10;67.20
56076;DHT22;41951;49.022;12.066;2022-07-03T13:50:04;31.20;66.90
56076;DHT22;41951;49.022;12.066;2022-07-03T13:52:29;31.30;66.60
56076;DHT22;41951;49.022;12.066;2022-07-03T13:54:55;31.40;66.70
56076;DHT22;41951;49.022;12.066;2022-07-03T13:57:21;31.50;66.00
56076;DHT22;41951;49.022;12.066;2022-07-03T13:59:47;31.50;65.50
56076;DHT22;41951;49.022;12.066;2022-07-03T14:02:13;31.50;64.80
56076;DHT22;41951;49.022;12.066;2022-07-03T14:04:38;31.40;64.60
56076;DHT22;41951;49.022;12.066;2022-07-03T14:07:04;31.20;64.60
56076;DHT22;41951;49.022;12.066;2022-07-03T14:09:30;31.20;64.10
56076;DHT22;41951;49.022;12.066;2022-07-03T14:11:55;31.30;64.10
56076;DHT22;41951;49.022;12.066;2022-07-03T14:14:21;31.50;63.90
56076;DHT22;41951;49.022;12.066;2022-07-03T14:16:46;31.70;63.70
56076;DHT22;41951;49.022;12.066;2022-07-03T14:19:12;31.70;62.70
56076;DHT22;41951;49.022;12.066;2022-07-03T14:21:37;31.60;62.40
56076;DHT22;41951;49.022;12.066;2022-07-03T14:24:04;31.60;62.60
56076;DHT22;41951;49.022;12.066;2022-07-03T14:26:29;32.10;63.00
56076;DHT22;41951;49.022;12.066;2022-07-03T14:29:13;32.00;62.30
56076;DHT22;41951;49.022;12.066;2022-07-03T14:32:00;32.30;61.80
56076;DHT22;41951;49.022;12.066;2022-07-03T14:34:44;32.50;61.20
56076;DHT22;41951;49.022;12.066;2022-07-03T14:37:10;32.20;61.20
56076;DHT22;41951;49.022;12.066;2022-07-03T14:39:36;32.20;60.70
56076;DHT22;41951;49.022;12.066;2022-07-03T14:42:02;32.00;60.30
56076;DHT22;41951;49.022;12.066;2022-07-03T14:44:28;32.20;60.40
56076;DHT22;41951;49.022;12.066;2022-07-03T14:46:55;32.50;60.20
56076;DHT22;41951;49.022;12.066;2022-07-03T14:49:21;32.20;59.20
56076;DHT22;41951;49.022;12.066;2022-07-03T14:51:46;32.50;59.60
56076;DHT22;41951;49.022;12.066;2022-07-03T14:54:17;32.70;59.30
56076;DHT22;41951;49.022;12.066;2022-07-03T14:56:48;32.70;58.70
56076;DHT22;41951;49.022;12.066;2022-07-03T14:59:18;32.80;57.70
56076;DHT22;41951;49.022;12.066;2022-07-03T15:01:46;32.80;58.20
56076;DHT22;41951;49.022;12.066;2022-07-03T15:04:45;32.90;57.70
56076;DHT22;41951;49.022;12.066;2022-07-03T15:07:18;33.30;57.50
56076;DHT22;41951;49.022;12.066;2022-07-03T15:10:04;33.60;57.00
56076;DHT22;41951;49.022;12.066;2022-07-03T15:12:32;33.50;55.00
56076;DHT22;41951;49.022;12.066;2022-07-03T15:15:01;33.40;55.30
56076;DHT22;41951;49.022;12.066;2022-07-03T15:17:27;33.50;55.20
56076;DHT22;41951;49.022;12.066;2022-07-03T15:19:55;33.70;55.00
56076;DHT22;41951;49.022;12.066;2022-07-03T15:22:21;33.50;54.40
56076;DHT22;41951;49.022;12.066;2022-07-03T15:24:49;33.30;54.30
56076;DHT22;41951;49.022;12.066;2022-07-03T15:27:21;33.40;54.70
56076;DHT22;41951;49.022;12.066;2022-07-03T15:29:47;33.30;54.10
56076;DHT22;41951;49.022;12.066;2022-07-03T15:32:13;33.20;54.80
56076;DHT22;41951;49.022;12.066;2022-07-03T15:34:39;33.20;54.40
56076;DHT22;41951;49.022;12.066;2022-07-03T15:37:26;33.30;54.50
56076;DHT22;41951;49.022;12.066;2022-07-03T15:40:19;33.30;54.10
56076;DHT22;41951;49.022;12.066;2022-07-03T15:48:38;33.30;52.80
56076;DHT22;41951;49.022;12.066;2022-07-03T15:51:20;33.20;52.60
56076;DHT22;41951;49.022;12.066;2022-07-03T15:53:56;33.10;53.10
56076;DHT22;41951;49.022;12.066;2022-07-03T15:56:29;33.30;53.30
56076;DHT22;41951;49.022;12.066;2022-07-03T15:59:00;33.50;53.20
56076;DHT22;41951;49.022;12.066;2022-07-03T16:01:28;33.50;52.60
56076;DHT22;41951;49.022;12.066;2022-07-03T16:07:11;33.40;51.80
56076;DHT22;41951;49.022;12.066;2022-07-03T16:09:38;33.10;52.40
56076;DHT22;41951;49.022;12.066;2022-07-03T16:12:05;32.50;52.30
56076;DHT22;41951;49.022;12.066;2022-07-03T16:14:34;32.20;52.60
56076;DHT22;41951;49.022;12.066;2022-07-03T16:17:02;32.10;52.90
56076;DHT22;41951;49.022;12.066;2022-07-03T16:19:31;32.00;53.30
56076;DHT22;41951;49.022;12.066;2022-07-03T16:21:59;32.10;53.80
56076;DHT22;41951;49.022;12.066;2022-07-03T16:24:25;32.00;54.20
56076;DHT22;41951;49.022;12.066;2022-07-03T16:26:52;31.90;54.50
56076;DHT22;41951;49.022;12.066;2022-07-03T16:29:17;31.90;54.40
56076;DHT22;41951;49.022;12.066;2022-07-03T16:31:48;31.70;54.70
56076;DHT22;41951;49.022;12.066;2022-07-03T16:36:58;31.40;54.50
56076;DHT22;41951;49.022;12.066;2022-07-03T16:39:33;31.30;54.70
56076;DHT22;41951;49.022;12.066;2022-07-03T16:41:59;31.10;54.80
56076;DHT22;41951;49.022;12.066;2022-07-03T16:44:27;31.00;55.40
56076;DHT22;41951;49.022;12.066;2022-07-03T16:46:54;31.00;55.40
56076;DHT22;41951;49.022;12.066;2022-07-03T16:49:23;31.00;55.90
56076;DHT22;41951;49.022;12.066;2022-07-03T16:51:53;30.90;55.90
56076;DHT22;41951;49.022;12.066;2022-07-03T16:54:20;30.90;56.20
56076;DHT22;41951;49.022;12.066;2022-07-03T16:56:47;30.80;56.20
56076;DHT22;41951;49.022;12.066;2022-07-03T16:59:14;30.70;56.70